createdAt,value
2023-11-12T00:02:24.198Z,99253.50
2023-11-12T00:05:13.170Z,99215.09
2023-11-12T00:07:57.397Z,99254.47
2023-11-12T00:10:42.833Z,99251.28
2023-11-12T00:13:27.013Z,99279.50
2023-11-12T00:16:11.313Z,99278.59
2023-11-12T00:18:55.368Z,99295.69
2023-11-12T00:21:39.703Z,99287.34
2023-11-12T00:24:23.937Z,99297.16
2023-11-12T00:27:09.249Z,99308.50
2023-11-12T00:29:53.655Z,99307.84
2023-11-12T00:32:38.336Z,99311.06
2023-11-12T00:35:22.522Z,99286.00
2023-11-12T00:38:07.091Z,99311.72
2023-11-12T00:40:51.360Z,99307.75
2023-11-12T00:43:37.172Z,99299.56
2023-11-12T00:46:21.781Z,99262.50
2023-11-12T00:49:06.440Z,99265.69
2023-11-12T00:51:50.745Z,99299.75
2023-11-12T00:54:34.957Z,99302.09
2023-11-12T00:57:19.051Z,99307.50
2023-11-12T01:00:05.843Z,99295.72
2023-11-12T01:02:50.066Z,99316.25
2023-11-12T01:05:34.193Z,99287.50
2023-11-12T01:08:18.296Z,99294.38
2023-11-12T01:11:02.469Z,99308.44
2023-11-12T01:13:46.725Z,99314.34
2023-11-12T01:16:32.242Z,99273.00
2023-11-12T01:19:16.321Z,99307.84
2023-11-12T01:22:00.573Z,99310.03
2023-11-12T01:24:44.596Z,99310.31
2023-11-12T01:27:28.606Z,99311.69
2023-11-12T01:30:13.277Z,99301.09
2023-11-12T01:32:58.703Z,99323.69
2023-11-12T01:35:42.728Z,99316.91
2023-11-12T01:38:27.177Z,99308.44
2023-11-12T01:41:11.450Z,99284.88
2023-11-12T01:43:55.774Z,99309.06
2023-11-12T01:46:40.492Z,99320.75
2023-11-12T01:49:26.102Z,99323.84
2023-11-12T01:52:12.628Z,99298.44
2023-11-12T01:54:59.124Z,99286.94
2023-11-12T01:57:47.211Z,99309.94
2023-11-12T02:00:31.486Z,99290.72
2023-11-12T02:03:19.124Z,99330.81
2023-11-12T02:06:05.279Z,99276.31
2023-11-12T02:08:49.338Z,99327.50
2023-11-12T02:11:33.554Z,99329.84
2023-11-12T02:14:19.333Z,99311.88
2023-11-12T02:17:03.454Z,99305.31
2023-11-12T02:19:47.684Z,99300.63
2023-11-12T02:22:34.649Z,99325.63
2023-11-12T02:25:20.195Z,99310.19
2023-11-12T02:28:04.371Z,99338.38
2023-11-12T02:30:49.193Z,99359.22
2023-11-12T02:33:33.607Z,99319.47
2023-11-12T02:36:18.812Z,99323.25
2023-11-12T02:39:03.583Z,99344.25
2023-11-12T02:41:50.104Z,99367.69
2023-11-12T02:44:34.444Z,99344.88
2023-11-12T02:47:18.741Z,99367.63
2023-11-12T02:50:27.011Z,99382.50
2023-11-12T02:53:13.206Z,99384.09
2023-11-12T02:55:57.598Z,99407.34
2023-11-12T02:58:42.957Z,99414.00
2023-11-12T03:01:27.454Z,99411.19
2023-11-12T03:04:11.992Z,99416.28
2023-11-12T03:06:56.534Z,99413.31
2023-11-12T03:09:40.829Z,99410.81
2023-11-12T03:12:25.088Z,99328.09
2023-11-12T03:15:12.488Z,99394.00
2023-11-12T03:17:56.724Z,99424.47
2023-11-12T03:20:41.084Z,99411.66
2023-11-12T03:23:25.279Z,99386.59
2023-11-12T03:26:09.634Z,99423.34
2023-11-12T03:28:53.951Z,99388.72
2023-11-12T03:31:40.087Z,99424.34
2023-11-12T03:34:26.218Z,99423.34
2023-11-12T03:37:10.613Z,99435.38
2023-11-12T03:39:54.771Z,99442.38
2023-11-12T03:42:40.176Z,99422.97
2023-11-12T03:45:24.541Z,99406.19
2023-11-12T03:48:11.728Z,99399.59
2023-11-12T03:50:56.136Z,99455.66
2023-11-12T03:53:40.363Z,99464.50
2023-11-12T03:56:24.454Z,99444.06
2023-11-12T03:59:09.108Z,99461.81
2023-11-12T04:01:53.703Z,99443.09
2023-11-12T04:04:40.448Z,99424.94
2023-11-12T04:07:25.558Z,99415.38
2023-11-12T04:10:10.473Z,99425.38
2023-11-12T04:12:54.860Z,99465.06
2023-11-12T04:15:39.454Z,99478.41
2023-11-12T04:18:24.923Z,99435.22
2023-11-12T04:21:12.091Z,99448.56
2023-11-12T04:23:56.356Z,99440.59
2023-11-12T04:26:40.727Z,99470.56
2023-11-12T04:29:25.274Z,99459.06
2023-11-12T04:32:09.849Z,99464.84
2023-11-12T04:34:54.104Z,99431.78
2023-11-12T04:37:39.885Z,99483.63
2023-11-12T04:40:24.178Z,99519.03
2023-11-12T04:43:08.727Z,99510.16
2023-11-12T04:45:53.067Z,99508.13
2023-11-12T04:48:37.636Z,99467.53
2023-11-12T04:51:22.043Z,99474.69
2023-11-12T04:54:08.377Z,99526.38
2023-11-12T04:56:52.630Z,99544.16
2023-11-12T04:59:36.829Z,99539.41
2023-11-12T05:02:21.200Z,99553.59
2023-11-12T05:05:05.990Z,99578.63
2023-11-12T05:07:50.407Z,99538.09
2023-11-12T05:10:44.847Z,99572.72
2023-11-12T05:13:30.312Z,99587.28
2023-11-12T05:16:14.740Z,99578.13
2023-11-12T05:19:00.752Z,99584.41
2023-11-12T05:21:46.984Z,99547.47
2023-11-12T05:24:31.326Z,99567.91
2023-11-12T05:27:17.469Z,99569.69
2023-11-12T05:30:02.228Z,99588.13
2023-11-12T05:32:48.537Z,99574.72
2023-11-12T05:35:32.867Z,99592.59
2023-11-12T05:38:17.360Z,99560.28
2023-11-12T05:41:01.671Z,99601.50
2023-11-12T05:43:48.083Z,99643.91
2023-11-12T05:46:32.265Z,99601.31
2023-11-12T05:49:16.628Z,99653.59
2023-11-12T05:52:00.942Z,99590.72
2023-11-12T05:54:45.218Z,99615.47
2023-11-12T05:57:29.401Z,99655.19
2023-11-12T06:00:17.672Z,99663.41
2023-11-12T06:03:02.082Z,99626.44
2023-11-12T06:05:46.488Z,99635.91
2023-11-12T06:08:30.786Z,99636.22
2023-11-12T06:11:16.288Z,99640.75
2023-11-12T06:14:00.465Z,99640.13
2023-11-12T06:16:46.140Z,99656.97
2023-11-12T06:19:30.377Z,99689.44
2023-11-12T06:22:14.825Z,99647.53
2023-11-12T06:24:59.125Z,99689.69
2023-11-12T06:27:43.402Z,99659.66
2023-11-12T06:30:27.766Z,99696.25
2023-11-12T06:33:13.558Z,99658.03
2023-11-12T06:35:58.025Z,99692.69
2023-11-12T06:38:43.283Z,99705.16
2023-11-12T06:41:27.922Z,99675.75
2023-11-12T06:44:13.654Z,99670.81
2023-11-12T06:46:58.590Z,99630.44
2023-11-12T06:49:45.037Z,99718.88
2023-11-12T06:52:29.243Z,99692.06
2023-11-12T06:55:13.623Z,99704.25
2023-11-12T06:57:57.920Z,99661.00
2023-11-12T07:00:42.944Z,99709.03
2023-11-12T07:03:27.139Z,99692.91
2023-11-12T07:06:12.732Z,99702.28
2023-11-12T07:08:56.738Z,99709.94
2023-11-12T07:11:41.022Z,99673.28
2023-11-12T07:14:26.013Z,99706.44
2023-11-12T07:17:10.223Z,99704.09
2023-11-12T07:19:54.749Z,99703.34
2023-11-12T07:22:40.177Z,99695.91
2023-11-12T07:25:25.030Z,99689.06
2023-11-12T07:28:09.296Z,99683.69
2023-11-12T07:30:53.245Z,99721.69
2023-11-12T07:33:37.370Z,99720.97
2023-11-12T07:36:22.642Z,99721.53
2023-11-12T07:39:08.953Z,99706.19
2023-11-12T07:41:53.136Z,99711.38
2023-11-12T07:44:41.778Z,99746.59
2023-11-12T07:47:26.136Z,99745.78
2023-11-12T07:50:11.097Z,99744.81
2023-11-12T07:52:55.191Z,99714.94
2023-11-12T07:55:41.327Z,99727.81
2023-11-12T07:58:25.746Z,99715.41
2023-11-12T08:01:09.960Z,99728.59
2023-11-12T08:03:54.535Z,99735.78
2023-11-12T08:06:38.748Z,99742.25
2023-11-12T08:09:22.875Z,99726.03
2023-11-12T08:12:09.267Z,99715.00
2023-11-12T08:14:53.308Z,99732.81
2023-11-12T08:17:37.376Z,99734.03
2023-11-12T08:20:21.712Z,99733.88
2023-11-12T08:23:07.193Z,99740.59
2023-11-12T08:25:51.189Z,99707.97
2023-11-12T08:28:36.712Z,99752.72
2023-11-12T08:31:20.758Z,99751.44
2023-11-12T08:34:04.879Z,99730.16
2023-11-12T08:36:49.001Z,99760.59
2023-11-12T08:39:33.052Z,99758.44
2023-11-12T08:42:17.332Z,99748.91
2023-11-12T08:45:05.369Z,99746.34
2023-11-12T08:47:50.021Z,99758.66
2023-11-12T08:50:34.990Z,99643.84
2023-11-12T08:53:19.189Z,99734.28
2023-11-12T08:56:03.577Z,99750.59
2023-11-12T08:58:47.613Z,99761.00
2023-11-12T09:01:36.085Z,99727.50
2023-11-12T09:04:20.371Z,99756.53
2023-11-12T09:07:05.350Z,99780.19
2023-11-12T09:09:52.458Z,99646.91
2023-11-12T09:12:36.511Z,99764.16
2023-11-12T09:15:20.988Z,99759.06
2023-11-12T09:18:06.906Z,99773.38
2023-11-12T09:20:51.111Z,99763.34
2023-11-12T09:23:35.540Z,99725.41
2023-11-12T09:26:23.906Z,99769.44
2023-11-12T09:29:08.909Z,99752.72
2023-11-12T09:31:53.008Z,99763.66
2023-11-12T09:34:38.414Z,99761.28
2023-11-12T09:37:22.504Z,99761.28
2023-11-12T09:40:09.335Z,99751.78
2023-11-12T09:42:55.123Z,99766.88
2023-11-12T09:45:42.753Z,99751.56
2023-11-12T09:48:32.991Z,99742.03
2023-11-12T09:51:19.772Z,99735.28
2023-11-12T09:54:04.689Z,99747.63
2023-11-12T09:56:51.243Z,99736.06
2023-11-12T09:59:38.072Z,99743.78
2023-11-12T10:02:23.327Z,99740.69
2023-11-12T10:05:11.738Z,99734.00
2023-11-12T10:07:57.425Z,99731.00
2023-11-12T10:10:43.182Z,99731.00
2023-11-12T10:13:38.042Z,99745.47
2023-11-12T10:16:27.206Z,99747.88
2023-11-12T10:19:13.905Z,99744.56
2023-11-12T10:21:59.917Z,99748.41
2023-11-12T10:24:47.032Z,99747.97
2023-11-12T10:27:31.259Z,99743.72
2023-11-12T10:30:21.945Z,99743.09
2023-11-12T10:33:18.361Z,99733.28
2023-11-12T10:36:09.837Z,99750.03
2023-11-12T10:38:53.996Z,99726.03
2023-11-12T10:41:40.540Z,99760.97
2023-11-12T10:44:24.913Z,99764.28
2023-11-12T10:47:13.775Z,99737.50
2023-11-12T10:49:58.576Z,99770.66
2023-11-12T10:52:44.010Z,99773.31
2023-11-12T10:55:28.547Z,99746.94
2023-11-12T10:58:15.529Z,99753.44
2023-11-12T11:01:02.980Z,99788.66
2023-11-12T11:03:49.587Z,99790.09
2023-11-12T11:06:35.202Z,99798.59
2023-11-12T11:09:19.941Z,99798.63
2023-11-12T11:12:04.800Z,99812.53
2023-11-12T11:14:50.425Z,99802.84
2023-11-12T11:17:39.172Z,99805.38
2023-11-12T11:20:25.193Z,99769.94
2023-11-12T11:23:39.265Z,99796.28
2023-11-12T11:26:35.750Z,99789.31
2023-11-12T11:29:19.968Z,99791.00
2023-11-12T11:32:22.671Z,99775.50
2023-11-12T11:35:20.198Z,99790.25
2023-11-12T11:38:13.056Z,99744.66
2023-11-12T11:40:58.416Z,99788.09
2023-11-12T11:43:42.504Z,99749.34
2023-11-12T11:46:27.056Z,99753.72
2023-11-12T11:49:22.003Z,99791.47
2023-11-12T11:52:07.311Z,99814.22
2023-11-12T11:55:04.439Z,99779.34
2023-11-12T11:57:52.550Z,99787.84
2023-11-12T12:00:36.898Z,99805.44
2023-11-12T12:03:23.124Z,99797.47
2023-11-12T12:06:18.218Z,99805.66
2023-11-12T12:09:02.213Z,99809.63
2023-11-12T12:11:47.426Z,99811.06
2023-11-12T12:14:37.741Z,99797.75
2023-11-12T12:17:21.755Z,99781.31
2023-11-12T12:20:07.466Z,99808.16
2023-11-12T12:22:54.937Z,99814.47
2023-11-12T12:25:51.313Z,99811.31
2023-11-12T12:28:35.700Z,99823.41
2023-11-12T12:31:20.223Z,99824.41
2023-11-12T12:34:07.443Z,99820.38
2023-11-12T12:36:57.327Z,99824.13
2023-11-12T12:40:01.836Z,99818.97
2023-11-12T12:42:56.015Z,99830.94
2023-11-12T12:45:40.300Z,99833.09
2023-11-12T12:48:24.855Z,99755.13
2023-11-12T12:51:16.797Z,99794.59
2023-11-12T12:54:01.057Z,99832.13
2023-11-12T12:56:46.918Z,99836.47
2023-11-12T12:59:36.440Z,99797.72
2023-11-12T13:02:21.276Z,99804.44
2023-11-12T13:05:06.606Z,99833.78
2023-11-12T13:07:53.095Z,99834.75
2023-11-12T13:10:37.577Z,99829.88
2023-11-12T13:13:25.646Z,99804.97
2023-11-12T13:16:12.148Z,99831.53
2023-11-12T13:18:56.681Z,99826.13
2023-11-12T13:21:53.937Z,99838.91
2023-11-12T13:24:44.731Z,99815.56
2023-11-12T13:27:31.825Z,99841.28
2023-11-12T13:30:17.892Z,99855.75
2023-11-12T13:33:02.395Z,99834.44
2023-11-12T13:35:46.873Z,99868.34
2023-11-12T13:38:34.842Z,99875.66
2023-11-12T13:41:21.931Z,99835.28
2023-11-12T13:44:06.749Z,99847.34
2023-11-12T13:46:54.929Z,99849.31
2023-11-12T13:49:39.660Z,99841.47
2023-11-12T13:52:24.289Z,99882.22
2023-11-12T13:55:11.548Z,99848.91
2023-11-12T13:57:58.896Z,99885.47
2023-11-12T14:00:47.384Z,99892.50
2023-11-12T14:03:33.550Z,99875.97
2023-11-12T14:06:18.005Z,99874.34
2023-11-12T14:09:04.872Z,99873.91
2023-11-12T14:11:58.622Z,99871.97
2023-11-12T14:14:43.103Z,99875.25
2023-11-12T14:17:30.774Z,99872.97
2023-11-12T14:20:23.747Z,99871.94
2023-11-12T14:23:18.144Z,99891.94
2023-11-12T14:26:03.013Z,99879.72
2023-11-12T14:28:48.107Z,99918.81
2023-11-12T14:31:35.359Z,99919.56
2023-11-12T14:34:19.934Z,99927.81
2023-11-12T14:37:05.608Z,99929.63
2023-11-12T14:39:49.506Z,99929.94
2023-11-12T14:42:33.517Z,99938.91
2023-11-12T14:45:28.103Z,99938.03
2023-11-12T14:48:16.195Z,99940.06
2023-11-12T14:51:01.261Z,99928.47
2023-11-12T14:53:56.888Z,99934.41
2023-11-12T14:56:45.081Z,99898.28
2023-11-12T14:59:29.942Z,99930.66
2023-11-12T15:02:14.059Z,99940.75
2023-11-12T15:04:58.246Z,99943.59
2023-11-12T15:07:42.756Z,99925.47
2023-11-12T15:10:29.695Z,99949.19
2023-11-12T15:13:13.880Z,99947.06
2023-11-12T15:15:57.893Z,99948.81
2023-11-12T15:18:42.063Z,99957.66
2023-11-12T15:21:26.269Z,99953.59
2023-11-12T15:24:12.117Z,99957.66
2023-11-12T15:26:58.491Z,99953.56
2023-11-12T15:29:44.952Z,99943.56
2023-11-12T15:32:29.469Z,99940.25
2023-11-12T15:35:15.712Z,99967.44
2023-11-12T15:38:00.226Z,99957.59
2023-11-12T15:40:46.461Z,99968.69
2023-11-12T15:43:32.016Z,99968.66
2023-11-12T15:46:16.056Z,99970.19
2023-11-12T15:49:00.334Z,99981.31
2023-11-12T15:51:44.381Z,99958.19
2023-11-12T15:54:28.963Z,99974.53
2023-11-12T15:57:13.042Z,99941.03
2023-11-12T15:59:58.703Z,99991.25
2023-11-12T16:02:43.257Z,99985.47
2023-11-12T16:05:29.544Z,99983.75
2023-11-12T16:08:14.723Z,99990.19
2023-11-12T16:10:58.723Z,99962.81
2023-11-12T16:13:43.115Z,99887.75
2023-11-12T16:16:28.582Z,99955.00
2023-11-12T16:19:12.665Z,99985.81
2023-11-12T16:21:56.683Z,99989.38
2023-11-12T16:24:41.204Z,99994.63
2023-11-12T16:27:25.312Z,99992.44
2023-11-12T16:30:10.604Z,99988.72
2023-11-12T16:32:56.031Z,99995.53
2023-11-12T16:35:40.173Z,99979.78
2023-11-12T16:38:24.396Z,99948.41
2023-11-12T16:41:08.536Z,99976.84
2023-11-12T16:43:52.521Z,99971.44
2023-11-12T16:46:37.078Z,99980.44
2023-11-12T16:49:22.536Z,99978.84
2023-11-12T16:52:07.921Z,99977.69
2023-11-12T16:54:52.954Z,99936.00
2023-11-12T16:57:37.717Z,99989.75
2023-11-12T17:00:23.196Z,99988.53
2023-11-12T17:03:08.129Z,99994.06
2023-11-12T17:05:53.997Z,99991.84
2023-11-12T17:08:37.997Z,99983.34
2023-11-12T17:11:22.213Z,99993.44
2023-11-12T17:14:08.615Z,100001.09
2023-11-12T17:16:52.878Z,99998.22
2023-11-12T17:19:37.524Z,100011.81
2023-11-12T17:22:24.686Z,100008.47
2023-11-12T17:25:11.449Z,100016.03
2023-11-12T17:27:56.437Z,100012.13
2023-11-12T17:30:44.201Z,100020.31
2023-11-12T17:33:33.693Z,100034.72
2023-11-12T17:36:18.188Z,100022.72
2023-11-12T17:39:05.899Z,100027.44
2023-11-12T17:41:52.745Z,99985.66
2023-11-12T17:44:37.227Z,99979.59
2023-11-12T17:47:22.421Z,100016.41
2023-11-12T17:50:08.064Z,99971.72
2023-11-12T17:52:53.101Z,100002.56
2023-11-12T17:55:39.091Z,100014.09
2023-11-12T17:58:23.575Z,100002.56
2023-11-12T18:01:10.254Z,100018.84
2023-11-12T18:03:56.548Z,100023.19
2023-11-12T18:06:46.270Z,100040.84
2023-11-12T18:09:32.622Z,100041.84
2023-11-12T18:12:21.235Z,100042.56
2023-11-12T18:15:06.465Z,100039.34
2023-11-12T18:17:51.055Z,100035.91
2023-11-12T18:20:35.606Z,100040.13
2023-11-12T18:23:23.782Z,100041.00
2023-11-12T18:26:11.148Z,100044.53
2023-11-12T18:28:56.808Z,100048.66
2023-11-12T18:31:41.707Z,100069.63
2023-11-12T18:34:26.179Z,100053.81
2023-11-12T18:37:12.798Z,100066.16
2023-11-12T18:39:57.685Z,100058.59
2023-11-12T18:42:42.309Z,100062.63
2023-11-12T18:45:30.263Z,100046.84
2023-11-12T18:48:14.685Z,100049.28
2023-11-12T18:51:00.232Z,100062.94
2023-11-12T18:53:45.483Z,100050.41
2023-11-12T18:56:30.034Z,100061.22
2023-11-12T18:59:14.414Z,100067.28
2023-11-12T19:02:00.452Z,100060.47
2023-11-12T19:04:45.195Z,100083.19
2023-11-12T19:07:30.261Z,100079.59
2023-11-12T19:10:14.838Z,100077.91
2023-11-12T19:12:59.433Z,100073.06
2023-11-12T19:15:44.762Z,100090.75
2023-11-12T19:18:32.311Z,100077.91
2023-11-12T19:21:17.399Z,100075.44
2023-11-12T19:24:02.130Z,100081.97
2023-11-12T19:26:48.132Z,100080.06
2023-11-12T19:29:32.847Z,100073.44
2023-11-12T19:32:17.783Z,100070.59
2023-11-12T19:35:03.950Z,100070.47
2023-11-12T19:37:49.351Z,100072.69
2023-11-12T19:40:34.060Z,100073.53
2023-11-12T19:43:20.813Z,100088.81
2023-11-12T19:46:06.093Z,100083.28
2023-11-12T19:48:53.476Z,100080.63
2023-11-12T19:51:40.347Z,100074.91
2023-11-12T19:54:25.048Z,100078.91
2023-11-12T19:57:09.424Z,100074.63
2023-11-12T19:59:54.906Z,100059.50
2023-11-12T20:02:40.032Z,100074.81
2023-11-12T20:05:26.743Z,100068.41
2023-11-12T20:08:13.190Z,100058.97
2023-11-12T20:10:57.504Z,100083.44
2023-11-12T20:13:42.284Z,100094.25
2023-11-12T20:16:26.488Z,100105.19
2023-11-12T20:19:10.897Z,100098.88
2023-11-12T20:21:57.241Z,100097.84
2023-11-12T20:24:43.476Z,100092.91
2023-11-12T20:27:27.821Z,100093.75
2023-11-12T20:30:12.920Z,100101.69
2023-11-12T20:32:58.032Z,100099.72
2023-11-12T20:35:42.533Z,100094.78
2023-11-12T20:38:26.941Z,100064.91
2023-11-12T20:41:12.474Z,100096.47
2023-11-12T20:43:58.826Z,100108.50
2023-11-12T20:46:46.810Z,100071.34
2023-11-12T20:49:31.636Z,100075.06
2023-11-12T20:52:16.253Z,100080.25
2023-11-12T20:55:01.956Z,100108.34
2023-11-12T20:57:51.252Z,100098.00
2023-11-12T21:00:35.766Z,100108.69
2023-11-12T21:03:22.822Z,100080.56
2023-11-12T21:06:08.859Z,100061.72
2023-11-12T21:08:52.944Z,100111.94
2023-11-12T21:11:40.966Z,100082.59
2023-11-12T21:14:30.303Z,100106.72
2023-11-12T21:17:16.625Z,100112.88
2023-11-12T21:20:00.754Z,100120.22
2023-11-12T21:22:45.760Z,100114.19
2023-11-12T21:25:29.728Z,100124.59
2023-11-12T21:28:13.745Z,100109.09
2023-11-12T21:30:59.449Z,100124.41
2023-11-12T21:33:45.243Z,100130.16
2023-11-12T21:36:29.247Z,100137.56
2023-11-12T21:39:18.115Z,100137.69
2023-11-12T21:42:02.409Z,100143.19
2023-11-12T21:44:47.093Z,100146.03
2023-11-12T21:47:32.560Z,100150.19
2023-11-12T21:50:18.722Z,100142.69
2023-11-12T21:53:02.710Z,100139.81
2023-11-12T21:55:46.739Z,100137.13
2023-11-12T21:58:31.624Z,100090.84
2023-11-12T22:01:15.705Z,100138.53
2023-11-12T22:04:03.293Z,100140.06
2023-11-12T22:06:48.424Z,100149.81
2023-11-12T22:09:32.629Z,100108.19
2023-11-12T22:12:17.655Z,100093.44
2023-11-12T22:15:02.021Z,100090.84
2023-11-12T22:17:50.008Z,100073.25
2023-11-12T22:20:38.916Z,100119.47
2023-11-12T22:23:23.603Z,100116.16
2023-11-12T22:26:07.760Z,100108.41
2023-11-12T22:28:53.873Z,100104.63
2023-11-12T22:31:37.939Z,100098.44
2023-11-12T22:34:23.235Z,100095.03
2023-11-12T22:37:09.073Z,100095.19
2023-11-12T22:39:53.107Z,100109.28
2023-11-12T22:42:37.724Z,100111.44
2023-11-12T22:45:23.786Z,100110.44
2023-11-12T22:48:08.095Z,100121.75
2023-11-12T22:50:52.231Z,100122.00
2023-11-12T22:53:38.452Z,100111.31
2023-11-12T22:56:22.507Z,100114.38
2023-11-12T22:59:06.668Z,100081.38
2023-11-12T23:01:51.054Z,100092.41
2023-11-12T23:04:35.088Z,100060.94
2023-11-12T23:07:19.502Z,100097.59
2023-11-12T23:10:08.232Z,100092.03
2023-11-12T23:12:52.649Z,100099.09
2023-11-12T23:15:36.817Z,100094.81
2023-11-12T23:18:21.982Z,100080.31
2023-11-12T23:21:09.696Z,100087.31
2023-11-12T23:23:54.126Z,100095.84
2023-11-12T23:26:39.457Z,100102.41
2023-11-12T23:29:23.612Z,100092.13
2023-11-12T23:32:09.940Z,100121.63
2023-11-12T23:34:55.778Z,100117.38
2023-11-12T23:37:40.220Z,100132.59
2023-11-12T23:40:24.525Z,100138.28
2023-11-12T23:43:10.669Z,100114.94
2023-11-12T23:45:54.738Z,100111.75
2023-11-12T23:48:38.837Z,100105.47
2023-11-12T23:51:22.806Z,100100.84
2023-11-12T23:54:09.019Z,100092.56
2023-11-12T23:56:53.604Z,100104.03
2023-11-12T23:59:38.932Z,100085.75
